Time;durP1;ratioP1;P1;durP2;ratioP2;P2;SDS_P1;SDS_P2;PMS_P1;PMS_P2;Temp;Humidity;BMP_temperature;BMP_pressure;BME280_temperature;BME280_humidity;BME280_pressure;Samples;Min_cycle;Max_cycle;Signal;HPM_P1;HPM_P2
2022/11/06 00:00:16;;;;;;;11.50;5.97;;;;;;;;;;525046;28;1056;-62
2022/11/06 00:00:32;;;;;;;10.50;5.80;;;;;;;;;;525653;28;1093;-62
2022/11/06 00:00:47;;;;;;;8.93;5.40;;;;;;;;;;525064;27;1980;-62
2022/11/06 00:01:11;;;;;;;8.98;5.68;;;;;;;;;;525870;27;1176;-62
2022/11/06 00:01:26;;;;;;;9.68;6.00;;;;;;;;;;522067;28;1305;-62
2022/11/06 00:01:42;;;;;;;8.40;5.43;;;;;;;;;;523418;28;1217;-62
2022/11/06 00:01:57;;;;;;;8.13;5.27;;;;;;;;;;523674;28;1077;-64
2022/11/06 00:02:12;;;;;;;8.47;5.30;;;;;;;;;;523591;28;1064;-62
2022/11/06 00:02:29;;;;;;;8.15;5.20;;;;;;;;;;523933;28;1341;-62
2022/11/06 00:02:44;;;;;;;7.95;5.10;;;;;;;;;;523481;28;1403;-62
2022/11/06 00:03:00;;;;;;;9.80;5.30;;;;;;;;;;523432;28;1236;-62
2022/11/06 00:03:15;;;;;;;10.82;5.43;;;;;;;;;;524340;28;1089;-62
2022/11/06 00:03:31;;;;;;;10.77;5.10;;;;;;;;;;523111;28;1215;-62
2022/11/06 00:03:46;;;;;;;10.70;5.30;;;;;;;;;;522236;28;1181;-62
2022/11/06 00:04:01;;;;;;;9.48;5.32;;;;;;;;;;523751;28;1172;-61
2022/11/06 00:04:17;;;;;;;9.87;5.37;;;;;;;;;;523290;28;1020;-62
2022/11/06 00:04:32;;;;;;;10.03;5.50;;;;;;;;;;526078;27;1055;-62
2022/11/06 00:04:47;;;;;;;9.47;5.37;;;;;;;;;;526428;28;1528;-62
2022/11/06 00:06:49;;;;;;;11.20;5.50;;;;;;;;;;526661;27;1010;-62
2022/11/06 00:07:06;;;;;;;10.83;5.53;;;;;;;;;;521811;28;1304;-62
2022/11/06 00:07:22;;;;;;;9.52;5.60;;;;;;;;;;525405;27;1138;-62
2022/11/06 00:07:37;;;;;;;8.43;5.40;;;;;;;;;;525835;27;1416;-62
2022/11/06 00:07:53;;;;;;;9.02;5.50;;;;;;;;;;526742;27;1462;-62
2022/11/06 00:08:08;;;;;;;9.30;5.73;;;;;;;;;;524951;27;1175;-62
2022/11/06 00:08:31;;;;;;;10.27;5.77;;;;;;;;;;527253;27;1135;-62
2022/11/06 00:08:47;;;;;;;9.60;5.68;;;;;;;;;;523492;28;1300;-62
2022/11/06 00:09:05;;;;;;;10.50;5.77;;;;;;;;;;524666;27;1178;-61
2022/11/06 00:09:20;;;;;;;9.48;5.53;;;;;;;;;;525140;28;1148;-61
2022/11/06 00:09:36;;;;;;;7.60;5.30;;;;;;;;;;525358;28;1176;-61
2022/11/06 00:09:51;;;;;;;8.10;5.60;;;;;;;;;;523532;27;1442;-62
2022/11/06 00:10:06;;;;;;;9.52;5.72;;;;;;;;;;522019;28;1402;-61
2022/11/06 00:10:22;;;;;;;9.40;5.40;;;;;;;;;;522723;28;1387;-61
2022/11/06 00:10:37;;;;;;;9.13;5.20;;;;;;;;;;523556;28;1232;-62
2022/11/06 00:10:52;;;;;;;11.30;5.47;;;;;;;;;;526805;27;1097;-62
2022/11/06 00:11:13;;;;;;;11.20;5.13;;;;;;;;;;522283;28;1235;-61
2022/11/06 00:11:29;;;;;;;11.75;5.18;;;;;;;;;;526348;27;1396;-61
2022/11/06 00:11:46;;;;;;;8.68;5.00;;;;;;;;;;526478;27;1041;-60
2022/11/06 00:12:01;;;;;;;8.85;4.93;;;;;;;;;;524050;28;1386;-62
2022/11/06 00:12:17;;;;;;;9.95;5.20;;;;;;;;;;525324;28;1232;-63
2022/11/06 00:12:32;;;;;;;10.47;5.40;;;;;;;;;;526656;27;1097;-62
2022/11/06 00:12:48;;;;;;;10.95;5.28;;;;;;;;;;526107;28;1140;-62
2022/11/06 00:13:03;;;;;;;10.17;5.27;;;;;;;;;;525760;27;1010;-61
2022/11/06 00:13:19;;;;;;;9.32;5.40;;;;;;;;;;528213;27;1092;-62
2022/11/06 00:13:34;;;;;;;10.90;5.80;;;;;;;;;;528317;27;1096;-62
2022/11/06 00:13:51;;;;;;;10.93;5.88;;;;;;;;;;526477;27;1273;-62
2022/11/06 00:14:07;;;;;;;10.52;5.75;;;;;;;;;;523477;28;1318;-62
2022/11/06 00:14:22;;;;;;;11.63;5.90;;;;;;;;;;523714;28;2126;-61
2022/11/06 00:14:37;;;;;;;10.53;5.80;;;;;;;;;;522016;28;2075;-63
2022/11/06 00:14:53;;;;;;;10.53;6.00;;;;;;;;;;523301;28;1040;-62
2022/11/06 00:15:08;;;;;;;10.80;6.13;;;;;;;;;;521751;28;1002;-61
2022/11/06 00:15:24;;;;;;;10.93;6.05;;;;;;;;;;522514;28;1304;-61
2022/11/06 00:15:39;;;;;;;10.13;6.17;;;;;;;;;;524012;28;956;-62
2022/11/06 00:15:54;;;;;;;8.30;6.00;;;;;;;;;;525661;28;1144;-62
2022/11/06 00:16:11;;;;;;;9.50;5.80;;;;;;;;;;524788;28;1350;-61
2022/11/06 00:16:27;;;;;;;9.77;5.80;;;;;;;;;;522939;28;1937;-62
2022/11/06 00:16:43;;;;;;;10.18;5.90;;;;;;;;;;523238;28;1001;-62
2022/11/06 00:16:59;;;;;;;11.70;6.03;;;;;;;;;;524418;28;1667;-61
2022/11/06 00:17:14;;;;;;;11.60;6.18;;;;;;;;;;522460;28;1070;-61
2022/11/06 00:17:29;;;;;;;11.27;6.27;;;;;;;;;;523764;28;1134;-62
2022/11/06 00:17:48;;;;;;;11.20;6.10;;;;;;;;;;522333;28;1197;-62
2022/11/06 00:18:03;;;;;;;11.98;6.00;;;;;;;;;;524119;28;1161;-62
2022/11/06 00:18:19;;;;;;;10.20;6.17;;;;;;;;;;523678;27;1140;-61
2022/11/06 00:18:35;;;;;;;9.23;6.30;;;;;;;;;;525463;27;1175;-60
2022/11/06 00:18:50;;;;;;;9.57;6.28;;;;;;;;;;526120;27;1101;-62
2022/11/06 00:19:06;;;;;;;11.50;6.53;;;;;;;;;;524615;27;1435;-61
2022/11/06 00:19:22;;;;;;;11.35;6.45;;;;;;;;;;523035;28;1447;-61
2022/11/06 00:19:37;;;;;;;10.40;6.28;;;;;;;;;;525581;28;1156;-62
2022/11/06 00:19:52;;;;;;;11.13;6.33;;;;;;;;;;523481;28;1223;-61
2022/11/06 00:20:08;;;;;;;11.23;6.30;;;;;;;;;;523698;28;1177;-61
2022/11/06 00:20:23;;;;;;;11.40;6.30;;;;;;;;;;523802;28;1004;-61
2022/11/06 00:20:39;;;;;;;11.73;6.47;;;;;;;;;;521887;28;1206;-61
2022/11/06 00:20:54;;;;;;;12.68;6.78;;;;;;;;;;521093;28;1932;-61
2022/11/06 00:21:15;;;;;;;12.23;6.67;;;;;;;;;;521272;28;1315;-62
2022/11/06 00:21:31;;;;;;;10.25;6.70;;;;;;;;;;523046;28;1153;-61
2022/11/06 00:21:47;;;;;;;10.93;6.90;;;;;;;;;;523991;28;1040;-61
2022/11/06 00:22:02;;;;;;;10.65;6.75;;;;;;;;;;524060;28;1289;-62
2022/11/06 00:22:17;;;;;;;10.77;7.00;;;;;;;;;;522905;28;1179;-61
2022/11/06 00:22:33;;;;;;;10.63;6.80;;;;;;;;;;523150;28;1382;-62
2022/11/06 00:22:49;;;;;;;11.73;6.45;;;;;;;;;;524472;28;1089;-61
2022/11/06 00:23:04;;;;;;;13.15;6.68;;;;;;;;;;523445;28;1164;-61
2022/11/06 00:23:20;;;;;;;13.97;7.03;;;;;;;;;;525233;28;1160;-61
2022/11/06 00:23:35;;;;;;;12.82;6.90;;;;;;;;;;519505;28;1239;-61
2022/11/06 00:23:52;;;;;;;10.83;6.93;;;;;;;;;;521703;28;1179;-61
2022/11/06 00:24:08;;;;;;;9.57;6.80;;;;;;;;;;523305;28;1030;-61
2022/11/06 00:24:23;;;;;;;11.35;6.85;;;;;;;;;;520986;28;1592;-61
2022/11/06 00:24:38;;;;;;;12.33;7.00;;;;;;;;;;524299;28;1022;-61
2022/11/06 00:24:54;;;;;;;11.48;6.97;;;;;;;;;;523218;28;1392;-62
2022/11/06 00:25:10;;;;;;;10.80;6.80;;;;;;;;;;522670;28;1129;-62
2022/11/06 00:25:25;;;;;;;9.60;6.70;;;;;;;;;;523597;28;1259;-61
2022/11/06 00:25:40;;;;;;;10.47;6.47;;;;;;;;;;521381;28;1173;-62
2022/11/06 00:25:56;;;;;;;11.38;6.38;;;;;;;;;;518633;28;1342;-62
2022/11/06 00:26:14;;;;;;;12.10;6.50;;;;;;;;;;520799;28;1212;-61
2022/11/06 00:26:30;;;;;;;12.65;6.80;;;;;;;;;;518497;28;1392;-61
2022/11/06 00:26:46;;;;;;;12.88;6.97;;;;;;;;;;520503;28;1799;-62
2022/11/06 00:27:01;;;;;;;12.03;6.90;;;;;;;;;;521366;28;1153;-61
2022/11/06 00:27:16;;;;;;;13.20;7.10;;;;;;;;;;520767;28;1242;-61
2022/11/06 00:27:37;;;;;;;13.43;7.30;;;;;;;;;;518686;28;1205;-61
2022/11/06 00:27:52;;;;;;;12.10;6.68;;;;;;;;;;519009;28;1488;-61
2022/11/06 00:28:08;;;;;;;10.70;6.57;;;;;;;;;;519157;28;1699;-61
2022/11/06 00:28:23;;;;;;;9.93;6.80;;;;;;;;;;519699;28;1206;-61
2022/11/06 00:28:39;;;;;;;11.40;6.93;;;;;;;;;;519022;28;1383;-61
2022/11/06 00:28:55;;;;;;;11.25;6.82;;;;;;;;;;521274;28;1201;-61
2022/11/06 00:29:14;;;;;;;12.02;7.28;;;;;;;;;;521283;28;1110;-61
2022/11/06 00:29:29;;;;;;;11.95;6.80;;;;;;;;;;519471;28;1630;-61
2022/11/06 00:29:44;;;;;;;11.27;6.37;;;;;;;;;;520387;28;1270;-61
2022/11/06 00:29:59;;;;;;;11.10;6.40;;;;;;;;;;521940;28;1117;-61
2022/11/06 00:30:15;;;;;;;11.40;6.53;;;;;;;;;;524992;28;1052;-61
2022/11/06 00:30:30;;;;;;;12.03;6.70;;;;;;;;;;523344;28;1239;-62
2022/11/06 00:30:46;;;;;;;12.17;6.60;;;;;;;;;;523351;28;1259;-61
2022/11/06 00:31:06;;;;;;;11.43;6.32;;;;;;;;;;523472;28;1121;-61
2022/11/06 00:31:27;;;;;;;10.57;6.43;;;;;;;;;;523289;28;1085;-61
2022/11/06 00:31:42;;;;;;;13.07;6.80;;;;;;;;;;523417;28;1133;-61
2022/11/06 00:31:57;;;;;;;12.85;6.68;;;;;;;;;;522787;28;1176;-61
2022/11/06 00:32:13;;;;;;;10.17;6.40;;;;;;;;;;523974;28;1240;-61
2022/11/06 00:32:28;;;;;;;10.00;6.10;;;;;;;;;;525699;27;1219;-61
2022/11/06 00:32:43;;;;;;;12.00;6.43;;;;;;;;;;523624;28;1178;-62
2022/11/06 00:32:58;;;;;;;11.05;6.72;;;;;;;;;;524547;28;1018;-61
2022/11/06 00:33:14;;;;;;;9.77;6.60;;;;;;;;;;524760;27;1184;-61
2022/11/06 00:33:29;;;;;;;11.10;6.60;;;;;;;;;;525338;28;1176;-62
2022/11/06 00:33:45;;;;;;;11.43;6.53;;;;;;;;;;525375;28;1108;-61
2022/11/06 00:34:01;;;;;;;13.27;6.70;;;;;;;;;;524149;28;1237;-61
2022/11/06 00:34:16;;;;;;;12.20;6.63;;;;;;;;;;520841;28;1106;-61
2022/11/06 00:34:32;;;;;;;11.00;6.47;;;;;;;;;;523489;28;1232;-61
2022/11/06 00:34:47;;;;;;;12.43;6.73;;;;;;;;;;524508;28;1231;-61
2022/11/06 00:35:03;;;;;;;12.00;6.80;;;;;;;;;;524040;28;1461;-61
2022/11/06 00:35:18;;;;;;;10.95;6.65;;;;;;;;;;524444;28;1054;-61
2022/11/06 00:35:36;;;;;;;10.45;6.50;;;;;;;;;;523766;28;1101;-61
2022/11/06 00:35:52;;;;;;;10.73;6.35;;;;;;;;;;524099;28;1570;-61
2022/11/06 00:36:11;;;;;;;11.57;6.70;;;;;;;;;;525675;27;1601;-61
2022/11/06 00:36:29;;;;;;;9.02;6.43;;;;;;;;;;526101;27;1060;-61
2022/11/06 00:36:44;;;;;;;10.40;6.70;;;;;;;;;;525333;27;1374;-61
2022/11/06 00:36:59;;;;;;;11.00;6.35;;;;;;;;;;526273;27;965;-61
2022/11/06 00:37:15;;;;;;;10.27;6.30;;;;;;;;;;525987;27;1197;-61
2022/11/06 00:37:30;;;;;;;10.27;6.53;;;;;;;;;;524983;28;1447;-61
2022/11/06 00:37:45;;;;;;;9.98;6.32;;;;;;;;;;524319;28;1085;-61
2022/11/06 00:38:01;;;;;;;11.83;6.40;;;;;;;;;;525144;28;1171;-61
2022/11/06 00:38:16;;;;;;;12.00;6.20;;;;;;;;;;523063;28;1271;-61
2022/11/06 00:38:31;;;;;;;11.50;6.20;;;;;;;;;;522976;28;1352;-61
2022/11/06 00:38:51;;;;;;;11.90;6.50;;;;;;;;;;524185;28;931;-62
2022/11/06 00:39:06;;;;;;;11.48;6.65;;;;;;;;;;523019;28;1407;-60
2022/11/06 00:39:21;;;;;;;10.67;6.37;;;;;;;;;;520958;28;1205;-61
2022/11/06 00:39:36;;;;;;;10.82;6.22;;;;;;;;;;520180;28;1386;-61
2022/11/06 00:39:52;;;;;;;11.60;6.20;;;;;;;;;;518644;28;1274;-61
2022/11/06 00:40:07;;;;;;;11.13;6.27;;;;;;;;;;517840;28;1468;-61
2022/11/06 00:40:23;;;;;;;10.07;6.55;;;;;;;;;;516887;28;1106;-60
2022/11/06 00:40:38;;;;;;;11.63;6.70;;;;;;;;;;518578;28;1129;-61
2022/11/06 00:40:53;;;;;;;10.95;6.38;;;;;;;;;;518401;28;2420;-61
2022/11/06 00:41:11;;;;;;;9.47;6.20;;;;;;;;;;521692;28;1652;-61
2022/11/06 00:41:27;;;;;;;10.98;6.43;;;;;;;;;;523943;28;1174;-61
2022/11/06 00:41:42;;;;;;;11.63;6.53;;;;;;;;;;523687;28;1305;-61
2022/11/06 00:41:58;;;;;;;11.83;6.60;;;;;;;;;;526149;28;971;-61
2022/11/06 00:42:14;;;;;;;12.23;6.80;;;;;;;;;;211690;28;10001027;-61
2022/11/06 00:42:29;;;;;;;11.93;6.80;;;;;;;;;;171957;28;10000707;-61
2022/11/06 00:42:45;;;;;;;10.23;6.50;;;;;;;;;;172763;28;10001204;-61
2022/11/06 00:43:00;;;;;;;9.67;6.13;;;;;;;;;;525217;28;1260;-61
2022/11/06 00:43:15;;;;;;;11.75;6.30;;;;;;;;;;524633;28;1397;-61
2022/11/06 00:43:31;;;;;;;12.97;6.60;;;;;;;;;;521740;28;1248;-61
2022/11/06 00:43:59;;;;;;;11.43;6.45;;;;;;;;;;522450;28;1337;-61
2022/11/06 00:44:14;;;;;;;10.98;6.28;;;;;;;;;;521007;28;1591;-62
2022/11/06 00:44:30;;;;;;;10.20;6.10;;;;;;;;;;523055;28;2037;-62
2022/11/06 00:44:45;;;;;;;11.70;6.43;;;;;;;;;;524548;28;1133;-61
2022/11/06 00:45:00;;;;;;;11.82;6.63;;;;;;;;;;520905;28;1138;-61
2022/11/06 00:45:15;;;;;;;10.73;6.50;;;;;;;;;;523076;28;1613;-61
2022/11/06 00:45:31;;;;;;;10.73;6.50;;;;;;;;;;521273;28;1325;-61
2022/11/06 00:45:46;;;;;;;11.90;6.13;;;;;;;;;;522827;28;1289;-62
2022/11/06 00:46:02;;;;;;;10.88;6.00;;;;;;;;;;520052;28;1398;-62
2022/11/06 00:46:18;;;;;;;11.68;6.57;;;;;;;;;;518713;28;1423;-61
2022/11/06 00:46:33;;;;;;;11.82;6.53;;;;;;;;;;520872;28;1310;-61
2022/11/06 00:46:48;;;;;;;10.13;6.30;;;;;;;;;;520785;28;1208;-62
2022/11/06 00:47:04;;;;;;;10.93;6.27;;;;;;;;;;521379;28;1082;-62
2022/11/06 00:47:19;;;;;;;12.73;6.10;;;;;;;;;;518886;28;1381;-62
2022/11/06 00:47:35;;;;;;;12.20;6.10;;;;;;;;;;522512;28;1207;-61
2022/11/06 00:47:50;;;;;;;12.47;6.57;;;;;;;;;;522788;28;1022;-61
2022/11/06 00:48:06;;;;;;;13.05;6.45;;;;;;;;;;524258;28;1227;-61
2022/11/06 00:48:21;;;;;;;10.95;6.20;;;;;;;;;;523590;28;1362;-61
2022/11/06 00:48:37;;;;;;;12.27;6.40;;;;;;;;;;523342;28;944;-61
2022/11/06 00:48:53;;;;;;;12.88;6.30;;;;;;;;;;520765;28;1709;-61
2022/11/06 00:49:09;;;;;;;11.57;6.22;;;;;;;;;;520888;28;1405;-62
2022/11/06 00:49:24;;;;;;;10.57;6.30;;;;;;;;;;520359;28;1126;-61
2022/11/06 00:49:39;;;;;;;9.63;6.40;;;;;;;;;;520952;28;1176;-62
2022/11/06 00:49:54;;;;;;;10.87;6.30;;;;;;;;;;520984;28;1157;-62
2022/11/06 00:50:10;;;;;;;11.27;6.23;;;;;;;;;;521907;28;1283;-62
2022/11/06 00:50:25;;;;;;;11.47;6.60;;;;;;;;;;523157;28;1082;-60
2022/11/06 00:50:40;;;;;;;11.57;6.60;;;;;;;;;;524495;28;1077;-63
2022/11/06 00:51:01;;;;;;;11.10;6.40;;;;;;;;;;527277;27;1226;-61
2022/11/06 00:51:20;;;;;;;12.23;6.40;;;;;;;;;;528495;27;1180;-61
2022/11/06 00:51:39;;;;;;;11.60;6.05;;;;;;;;;;527852;27;1304;-62
2022/11/06 00:51:54;;;;;;;13.20;6.35;;;;;;;;;;525686;27;1425;-62
2022/11/06 00:52:09;;;;;;;11.87;6.17;;;;;;;;;;523524;28;1374;-61
2022/11/06 00:52:25;;;;;;;10.83;6.13;;;;;;;;;;526003;27;1303;-62
2022/11/06 00:52:40;;;;;;;11.05;6.15;;;;;;;;;;525086;28;1609;-61
2022/11/06 00:52:55;;;;;;;10.47;6.07;;;;;;;;;;524856;28;1133;-62
2022/11/06 00:53:10;;;;;;;9.73;6.00;;;;;;;;;;522118;28;1291;-62
2022/11/06 00:53:26;;;;;;;9.57;5.60;;;;;;;;;;518832;28;1175;-62
2022/11/06 00:53:42;;;;;;;10.65;5.55;;;;;;;;;;518826;28;1354;-62
2022/11/06 00:54:01;;;;;;;10.88;6.10;;;;;;;;;;520319;28;1078;-62
2022/11/06 00:54:16;;;;;;;12.15;6.22;;;;;;;;;;519630;28;1201;-61
2022/11/06 00:54:31;;;;;;;13.33;6.37;;;;;;;;;;521183;28;991;-62
2022/11/06 00:54:47;;;;;;;13.33;6.33;;;;;;;;;;525354;28;1097;-62
2022/11/06 00:55:02;;;;;;;10.23;5.80;;;;;;;;;;525716;28;1208;-62
2022/11/06 00:55:17;;;;;;;9.00;5.70;;;;;;;;;;527296;27;1049;-62
2022/11/06 00:55:33;;;;;;;12.10;5.70;;;;;;;;;;524582;27;1167;-62
2022/11/06 00:55:48;;;;;;;11.87;5.83;;;;;;;;;;527098;27;1108;-62
2022/11/06 00:56:11;;;;;;;9.43;5.80;;;;;;;;;;524984;28;1317;-62
2022/11/06 00:56:28;;;;;;;11.70;5.82;;;;;;;;;;520460;28;1214;-62
2022/11/06 00:56:43;;;;;;;13.23;6.20;;;;;;;;;;522066;28;1029;-62
2022/11/06 00:56:58;;;;;;;11.50;5.90;;;;;;;;;;523277;28;1125;-62
2022/11/06 00:57:14;;;;;;;10.30;5.80;;;;;;;;;;520871;28;1418;-61
2022/11/06 00:57:29;;;;;;;11.03;6.00;;;;;;;;;;519788;28;1224;-62
2022/11/06 00:57:44;;;;;;;11.43;5.73;;;;;;;;;;519144;28;1304;-62
2022/11/06 00:57:59;;;;;;;9.97;5.60;;;;;;;;;;520549;28;1192;-62
2022/11/06 00:58:15;;;;;;;9.60;5.63;;;;;;;;;;520435;28;1244;-62
2022/11/06 00:58:30;;;;;;;9.53;5.73;;;;;;;;;;518205;28;1571;-61
2022/11/06 00:58:46;;;;;;;10.43;5.90;;;;;;;;;;517660;28;999;-62
2022/11/06 00:59:04;;;;;;;10.43;6.07;;;;;;;;;;520917;28;1330;-62
2022/11/06 00:59:19;;;;;;;10.52;5.97;;;;;;;;;;519607;28;1977;-62
2022/11/06 00:59:34;;;;;;;10.43;5.70;;;;;;;;;;520848;28;1149;-62
2022/11/06 00:59:50;;;;;;;9.70;5.75;;;;;;;;;;519822;28;1294;-62
2022/11/06 01:00:06;;;;;;;10.60;5.80;;;;;;;;;;517635;28;1151;-62
2022/11/06 01:00:21;;;;;;;11.98;5.88;;;;;;;;;;518071;28;1212;-62
2022/11/06 01:00:36;;;;;;;10.53;5.80;;;;;;;;;;515937;28;1533;-62
2022/11/06 01:00:51;;;;;;;10.52;5.90;;;;;;;;;;518087;28;1941;-62
2022/11/06 01:01:19;;;;;;;10.30;5.93;;;;;;;;;;516442;28;1180;-62
2022/11/06 01:01:37;;;;;;;10.35;5.70;;;;;;;;;;520734;28;1050;-62
2022/11/06 01:01:52;;;;;;;8.05;5.35;;;;;;;;;;522648;28;1057;-62
2022/11/06 01:02:08;;;;;;;9.23;5.60;;;;;;;;;;522879;28;1081;-62
2022/11/06 01:02:23;;;;;;;10.40;5.70;;;;;;;;;;522155;28;1483;-62
2022/11/06 01:02:38;;;;;;;8.73;5.60;;;;;;;;;;522891;28;1354;-62
2022/11/06 01:02:54;;;;;;;8.77;5.50;;;;;;;;;;522752;28;1397;-61
2022/11/06 01:03:10;;;;;;;9.68;5.47;;;;;;;;;;526549;28;1215;-62
2022/11/06 01:03:25;;;;;;;9.00;5.70;;;;;;;;;;525399;28;1167;-62
2022/11/06 01:03:42;;;;;;;8.87;5.70;;;;;;;;;;522509;28;1193;-62
2022/11/06 01:04:20;;;;;;;11.15;5.53;;;;;;;;;;521765;28;1361;-62
2022/11/06 01:04:35;;;;;;;13.00;6.22;;;;;;;;;;523050;28;1145;-62
2022/11/06 01:04:50;;;;;;;12.85;6.20;;;;;;;;;;523926;28;1252;-62
2022/11/06 01:05:06;;;;;;;9.43;5.57;;;;;;;;;;523586;28;1164;-62
2022/11/06 01:05:21;;;;;;;8.83;5.43;;;;;;;;;;524792;28;1140;-62
2022/11/06 01:05:36;;;;;;;10.43;5.80;;;;;;;;;;525024;27;1188;-62
2022/11/06 01:05:51;;;;;;;12.00;5.87;;;;;;;;;;523850;27;1672;-62
2022/11/06 01:06:11;;;;;;;10.83;6.00;;;;;;;;;;525854;27;1209;-62
2022/11/06 01:06:29;;;;;;;10.43;6.10;;;;;;;;;;527319;27;1215;-62
2022/11/06 01:06:47;;;;;;;11.00;6.10;;;;;;;;;;525761;27;1327;-62
2022/11/06 01:07:02;;;;;;;11.50;5.67;;;;;;;;;;527870;27;1212;-62
2022/11/06 01:07:18;;;;;;;11.63;5.53;;;;;;;;;;524141;28;1148;-62
2022/11/06 01:07:33;;;;;;;11.77;5.87;;;;;;;;;;519707;28;1305;-62
2022/11/06 01:07:48;;;;;;;11.90;5.90;;;;;;;;;;519996;28;1317;-62
2022/11/06 01:08:03;;;;;;;12.48;5.57;;;;;;;;;;519038;28;1206;-62
2022/11/06 01:08:19;;;;;;;11.93;5.50;;;;;;;;;;519848;28;1181;-62
2022/11/06 01:08:34;;;;;;;9.73;5.53;;;;;;;;;;518599;28;1122;-62
2022/11/06 01:08:50;;;;;;;9.02;5.38;;;;;;;;;;517860;28;1114;-62
2022/11/06 01:09:07;;;;;;;8.93;5.40;;;;;;;;;;517370;28;1447;-62
2022/11/06 01:09:24;;;;;;;9.55;5.70;;;;;;;;;;519984;28;1118;-62
2022/11/06 01:09:40;;;;;;;9.80;5.45;;;;;;;;;;522735;28;1194;-61
2022/11/06 01:09:56;;;;;;;9.20;5.50;;;;;;;;;;523020;28;1188;-62
2022/11/06 01:10:11;;;;;;;9.75;5.80;;;;;;;;;;521765;28;1258;-62
2022/11/06 01:10:26;;;;;;;10.45;5.75;;;;;;;;;;520748;28;1336;-62
2022/11/06 01:10:41;;;;;;;11.37;5.80;;;;;;;;;;519131;28;1441;-62
2022/11/06 01:10:57;;;;;;;11.00;5.63;;;;;;;;;;520207;28;1134;-62
2022/11/06 01:11:32;;;;;;;9.00;5.38;;;;;;;;;;521943;28;1456;-62
2022/11/06 01:11:52;;;;;;;11.02;5.70;;;;;;;;;;519292;28;1402;-62
2022/11/06 01:12:07;;;;;;;12.02;5.85;;;;;;;;;;518276;28;2161;-62
2022/11/06 01:12:22;;;;;;;11.10;5.83;;;;;;;;;;521733;28;978;-62
2022/11/06 01:12:38;;;;;;;10.60;5.77;;;;;;;;;;522255;28;1031;-61
2022/11/06 01:12:53;;;;;;;10.85;5.82;;;;;;;;;;522355;28;1220;-62
2022/11/06 01:13:08;;;;;;;11.73;5.97;;;;;;;;;;522756;28;1101;-63
2022/11/06 01:13:23;;;;;;;12.13;5.80;;;;;;;;;;520709;28;1186;-62
2022/11/06 01:13:39;;;;;;;11.60;5.73;;;;;;;;;;520337;28;1003;-61
2022/11/06 01:13:57;;;;;;;9.70;5.40;;;;;;;;;;518766;28;1225;-62
2022/11/06 01:14:13;;;;;;;8.30;5.15;;;;;;;;;;517498;28;2316;-62
2022/11/06 01:14:29;;;;;;;9.00;5.32;;;;;;;;;;518819;28;1092;-62
2022/11/06 01:14:44;;;;;;;11.20;5.60;;;;;;;;;;520938;28;1048;-61
2022/11/06 01:15:00;;;;;;;11.83;5.80;;;;;;;;;;520469;28;1367;-62
2022/11/06 01:15:15;;;;;;;10.70;5.70;;;;;;;;;;519119;28;976;-62
2022/11/06 01:15:35;;;;;;;9.60;5.40;;;;;;;;;;518646;28;1235;-62
2022/11/06 01:15:50;;;;;;;7.95;4.85;;;;;;;;;;523177;28;1094;-62
2022/11/06 01:16:14;;;;;;;8.00;4.93;;;;;;;;;;522995;28;1299;-62
2022/11/06 01:16:30;;;;;;;9.13;5.00;;;;;;;;;;523304;28;1169;-62
2022/11/06 01:16:46;;;;;;;9.82;5.22;;;;;;;;;;519632;28;1513;-62
2022/11/06 01:17:01;;;;;;;10.23;5.60;;;;;;;;;;520910;28;1276;-62
2022/11/06 01:17:16;;;;;;;9.73;5.53;;;;;;;;;;522884;28;1054;-62
2022/11/06 01:17:33;;;;;;;9.33;5.37;;;;;;;;;;525337;28;1160;-62
2022/11/06 01:17:48;;;;;;;8.93;5.50;;;;;;;;;;523733;28;1213;-62
2022/11/06 01:18:04;;;;;;;8.20;5.50;;;;;;;;;;527351;27;1065;-62
2022/11/06 01:18:19;;;;;;;8.70;5.40;;;;;;;;;;527341;28;1065;-62
2022/11/06 01:18:35;;;;;;;9.77;5.67;;;;;;;;;;525814;27;1159;-62
2022/11/06 01:18:53;;;;;;;10.35;5.80;;;;;;;;;;527455;27;1148;-62
2022/11/06 01:19:10;;;;;;;11.10;5.70;;;;;;;;;;525884;27;1049;-62
2022/11/06 01:19:25;;;;;;;10.00;5.60;;;;;;;;;;524939;28;1321;-62
2022/11/06 01:19:40;;;;;;;9.83;5.43;;;;;;;;;;523547;28;1193;-62
2022/11/06 01:19:56;;;;;;;12.73;5.67;;;;;;;;;;518632;28;1207;-62
2022/11/06 01:20:11;;;;;;;13.27;5.83;;;;;;;;;;522523;28;1242;-62
2022/11/06 01:20:26;;;;;;;11.97;5.70;;;;;;;;;;522555;28;1120;-63
2022/11/06 01:20:41;;;;;;;10.80;5.60;;;;;;;;;;523311;28;1129;-62
2022/11/06 01:20:57;;;;;;;8.67;5.67;;;;;;;;;;520961;28;1958;-62
2022/11/06 01:21:15;;;;;;;9.87;6.07;;;;;;;;;;520489;28;1076;-62
2022/11/06 01:21:33;;;;;;;10.25;6.15;;;;;;;;;;524014;28;1325;-62
2022/11/06 01:21:51;;;;;;;8.07;5.75;;;;;;;;;;525217;27;1057;-62
2022/11/06 01:22:06;;;;;;;9.65;5.80;;;;;;;;;;525791;28;1548;-62
2022/11/06 01:22:22;;;;;;;11.02;5.80;;;;;;;;;;525547;28;1502;-62
2022/11/06 01:22:37;;;;;;;9.63;5.57;;;;;;;;;;526237;28;1341;-62
2022/11/06 01:22:52;;;;;;;10.60;5.90;;;;;;;;;;521643;28;1144;-61
2022/11/06 01:23:07;;;;;;;11.87;6.10;;;;;;;;;;523497;28;1156;-62
2022/11/06 01:23:23;;;;;;;11.40;5.88;;;;;;;;;;520530;28;1016;-62
2022/11/06 01:23:38;;;;;;;11.83;5.90;;;;;;;;;;522368;28;1323;-62
2022/11/06 01:23:56;;;;;;;11.18;5.70;;;;;;;;;;520713;28;1431;-61
2022/11/06 01:24:15;;;;;;;10.85;6.00;;;;;;;;;;522122;28;2124;-61
2022/11/06 01:24:30;;;;;;;10.20;5.85;;;;;;;;;;521092;28;2052;-61
2022/11/06 01:24:45;;;;;;;9.37;5.70;;;;;;;;;;520334;28;1333;-61
2022/11/06 01:25:01;;;;;;;8.45;5.68;;;;;;;;;;520865;28;1188;-61
2022/11/06 01:25:17;;;;;;;11.63;5.87;;;;;;;;;;522787;28;1137;-61
2022/11/06 01:25:32;;;;;;;12.65;5.95;;;;;;;;;;521999;28;1404;-61
2022/11/06 01:26:05;;;;;;;10.27;5.70;;;;;;;;;;520172;28;1228;-61
2022/11/06 01:26:22;;;;;;;9.38;5.80;;;;;;;;;;521105;28;1317;-61
2022/11/06 01:26:37;;;;;;;10.90;6.18;;;;;;;;;;522275;28;1380;-62
2022/11/06 01:26:53;;;;;;;10.43;6.05;;;;;;;;;;521115;28;1231;-62
2022/11/06 01:27:09;;;;;;;8.60;5.57;;;;;;;;;;521351;28;1141;-61
2022/11/06 01:27:24;;;;;;;9.13;5.67;;;;;;;;;;518747;28;1284;-61
2022/11/06 01:27:39;;;;;;;9.07;5.53;;;;;;;;;;522160;28;994;-61
2022/11/06 01:27:54;;;;;;;9.33;5.63;;;;;;;;;;519949;28;1117;-62
2022/11/06 01:28:10;;;;;;;9.60;5.80;;;;;;;;;;520710;28;1408;-61
2022/11/06 01:28:26;;;;;;;10.33;5.77;;;;;;;;;;519755;28;1114;-61
2022/11/06 01:28:41;;;;;;;11.75;5.80;;;;;;;;;;518362;28;1114;-61
2022/11/06 01:28:57;;;;;;;10.00;5.77;;;;;;;;;;519692;28;1140;-62
2022/11/06 01:29:15;;;;;;;9.15;5.82;;;;;;;;;;521557;28;1491;-63
2022/11/06 01:29:30;;;;;;;11.32;6.00;;;;;;;;;;522939;28;1285;-61
2022/11/06 01:29:45;;;;;;;10.37;6.00;;;;;;;;;;520589;28;1256;-61
2022/11/06 01:30:01;;;;;;;10.83;5.80;;;;;;;;;;524091;28;1617;-61
2022/11/06 01:30:17;;;;;;;10.70;5.50;;;;;;;;;;525597;28;1540;-61
2022/11/06 01:30:35;;;;;;;11.27;5.80;;;;;;;;;;528554;27;1605;-62
2022/11/06 01:30:51;;;;;;;9.15;5.55;;;;;;;;;;527335;27;1215;-62
2022/11/06 01:31:13;;;;;;;7.90;5.13;;;;;;;;;;525475;28;1538;-62
2022/11/06 01:31:31;;;;;;;8.02;5.47;;;;;;;;;;523107;28;1364;-62
2022/11/06 01:31:49;;;;;;;8.02;5.30;;;;;;;;;;524392;28;1346;-62
2022/11/06 01:32:05;;;;;;;7.43;5.25;;;;;;;;;;523941;28;1278;-61
2022/11/06 01:32:20;;;;;;;7.93;5.35;;;;;;;;;;521099;28;1620;-61
2022/11/06 01:32:35;;;;;;;9.35;5.40;;;;;;;;;;521916;28;1306;-62
2022/11/06 01:32:51;;;;;;;9.70;5.43;;;;;;;;;;521925;28;1538;-61
2022/11/06 01:33:06;;;;;;;8.90;5.60;;;;;;;;;;523912;28;1240;-62
2022/11/06 01:33:22;;;;;;;8.50;5.90;;;;;;;;;;520718;28;1760;-62
2022/11/06 01:33:37;;;;;;;10.20;5.95;;;;;;;;;;520733;28;1228;-62
2022/11/06 01:33:57;;;;;;;10.35;5.93;;;;;;;;;;522668;28;1434;-62
2022/11/06 01:34:12;;;;;;;10.07;5.75;;;;;;;;;;522354;28;1309;-62
2022/11/06 01:34:27;;;;;;;10.77;5.70;;;;;;;;;;522669;28;1228;-62
2022/11/06 01:34:43;;;;;;;10.75;5.55;;;;;;;;;;525748;28;1574;-62
2022/11/06 01:34:58;;;;;;;9.97;5.57;;;;;;;;;;527092;28;1223;-61
2022/11/06 01:35:13;;;;;;;9.33;5.97;;;;;;;;;;523485;28;1655;-61
2022/11/06 01:35:28;;;;;;;9.38;6.05;;;;;;;;;;522245;28;1288;-62
2022/11/06 01:35:45;;;;;;;9.93;5.73;;;;;;;;;;522762;28;1509;-61
2022/11/06 01:36:00;;;;;;;9.45;5.65;;;;;;;;;;524559;28;1439;-62
2022/11/06 01:36:18;;;;;;;9.77;5.87;;;;;;;;;;522404;28;1250;-62
2022/11/06 01:36:33;;;;;;;12.45;6.00;;;;;;;;;;523309;28;1436;-61
2022/11/06 01:36:49;;;;;;;13.55;5.78;;;;;;;;;;523749;28;1278;-61
2022/11/06 01:37:04;;;;;;;10.80;5.63;;;;;;;;;;520728;28;1438;-61
2022/11/06 01:37:19;;;;;;;9.90;5.83;;;;;;;;;;520882;28;1119;-61
2022/11/06 01:37:34;;;;;;;11.50;6.22;;;;;;;;;;520544;28;1209;-61
2022/11/06 01:37:50;;;;;;;11.60;6.30;;;;;;;;;;520119;28;1300;-62
2022/11/06 01:38:05;;;;;;;10.63;5.97;;;;;;;;;;518495;28;1620;-61
2022/11/06 01:38:20;;;;;;;11.43;5.80;;;;;;;;;;519263;28;1998;-61
2022/11/06 01:38:38;;;;;;;11.37;5.90;;;;;;;;;;517554;28;1300;-61
2022/11/06 01:39:02;;;;;;;10.13;6.03;;;;;;;;;;518304;28;1569;-62
2022/11/06 01:39:18;;;;;;;9.82;6.10;;;;;;;;;;519296;28;1240;-61
2022/11/06 01:39:33;;;;;;;10.33;6.00;;;;;;;;;;516754;28;1545;-62
2022/11/06 01:39:49;;;;;;;11.63;6.00;;;;;;;;;;519153;28;1270;-61
2022/11/06 01:40:05;;;;;;;11.23;6.15;;;;;;;;;;514973;28;1355;-62
2022/11/06 01:40:20;;;;;;;11.10;6.20;;;;;;;;;;518723;28;1550;-61
2022/11/06 01:40:43;;;;;;;10.85;6.22;;;;;;;;;;519312;28;1325;-61
2022/11/06 01:40:58;;;;;;;10.93;5.70;;;;;;;;;;520986;28;1910;-61